createdAt,value
2023-05-25T00:01:04.217Z,8
2023-05-25T00:02:28.864Z,9
2023-05-25T00:03:36.097Z,8
2023-05-25T00:04:44.855Z,8
2023-05-25T00:07:56.893Z,9
2023-05-25T00:09:53.231Z,10
2023-05-25T00:11:08.180Z,8
2023-05-25T00:12:46.870Z,8
2023-05-25T00:13:56.845Z,9
2023-05-25T00:15:04.942Z,9
2023-05-25T00:16:12.113Z,8
2023-05-25T00:17:21.795Z,8
2023-05-25T00:18:31.991Z,8
2023-05-25T00:19:39.741Z,9
2023-05-25T00:20:54.724Z,9
2023-05-25T00:22:01.715Z,9
2023-05-25T00:23:08.927Z,9
2023-05-25T00:24:19.041Z,10
2023-05-25T00:25:26.059Z,8
2023-05-25T00:26:41.861Z,9
2023-05-25T00:28:49.206Z,9
2023-05-25T00:31:16.956Z,8
2023-05-25T00:32:23.894Z,9
2023-05-25T00:33:37.806Z,8
2023-05-25T00:34:58.343Z,9
2023-05-25T00:36:05.342Z,9
2023-05-25T00:37:12.243Z,7
2023-05-25T00:38:19.052Z,8
2023-05-25T00:39:25.957Z,8
2023-05-25T00:40:32.762Z,9
2023-05-25T00:41:43.115Z,8
2023-05-25T00:42:55.949Z,11
2023-05-25T00:44:02.753Z,8
2023-05-25T00:45:09.572Z,10
2023-05-25T00:46:16.690Z,8
2023-05-25T00:47:23.507Z,9
2023-05-25T00:48:30.429Z,10
2023-05-25T00:49:38.114Z,10
2023-05-25T00:50:45.027Z,8
2023-05-25T00:51:51.788Z,11
2023-05-25T00:52:58.650Z,10
2023-05-25T00:54:05.810Z,10
2023-05-25T00:55:12.681Z,9
2023-05-25T00:56:19.454Z,9
2023-05-25T00:57:35.222Z,10
2023-05-25T00:58:42.070Z,11
2023-05-25T00:59:48.863Z,10
2023-05-25T01:00:55.622Z,9
2023-05-25T01:02:02.559Z,8
2023-05-25T01:03:12.376Z,11
2023-05-25T01:04:19.018Z,9
2023-05-25T01:05:25.872Z,9
2023-05-25T01:06:32.830Z,9
2023-05-25T01:07:39.632Z,9
2023-05-25T01:08:46.455Z,10
2023-05-25T01:09:53.306Z,10
2023-05-25T01:11:00.092Z,9
2023-05-25T01:12:06.868Z,10
2023-05-25T01:13:13.674Z,10
2023-05-25T01:14:20.511Z,10
2023-05-25T01:15:27.358Z,9
2023-05-25T01:16:34.237Z,9
2023-05-25T01:17:40.990Z,9
2023-05-25T01:18:47.795Z,10
2023-05-25T01:21:01.548Z,10
2023-05-25T01:22:18.435Z,11
2023-05-25T01:23:30.786Z,10
2023-05-25T01:24:37.632Z,10
2023-05-25T01:25:47.448Z,9
2023-05-25T01:26:54.265Z,11
2023-05-25T01:28:01.071Z,11
2023-05-25T01:29:10.641Z,8
2023-05-25T01:30:17.455Z,10
2023-05-25T01:31:24.345Z,10
2023-05-25T01:32:31.001Z,10
2023-05-25T01:33:37.814Z,10
2023-05-25T01:34:44.551Z,10
2023-05-25T01:35:51.387Z,9
2023-05-25T01:36:58.186Z,10
2023-05-25T01:38:04.963Z,9
2023-05-25T01:39:11.775Z,9
2023-05-25T01:40:18.598Z,11
2023-05-25T01:41:25.382Z,9
2023-05-25T01:42:32.168Z,9
2023-05-25T01:43:39.102Z,9
2023-05-25T01:44:46.047Z,9
2023-05-25T01:45:52.871Z,10
2023-05-25T01:46:59.625Z,10
2023-05-25T01:48:06.466Z,8
2023-05-25T01:49:16.349Z,11
2023-05-25T01:50:28.208Z,10
2023-05-25T01:51:40.059Z,10
2023-05-25T01:52:51.985Z,9
2023-05-25T01:54:01.414Z,9
2023-05-25T01:55:08.177Z,10
2023-05-25T01:56:15.001Z,11
2023-05-25T01:57:21.895Z,10
2023-05-25T01:58:28.705Z,10
2023-05-25T01:59:35.548Z,10
2023-05-25T02:00:42.408Z,11
2023-05-25T02:01:52.137Z,11
2023-05-25T02:02:56.279Z,12
2023-05-25T02:04:03.135Z,9
2023-05-25T02:05:09.906Z,10
2023-05-25T02:06:16.707Z,9
2023-05-25T02:07:23.500Z,10
2023-05-25T02:08:30.447Z,10
2023-05-25T02:09:37.408Z,9
2023-05-25T02:10:44.025Z,10
2023-05-25T02:11:50.828Z,11
2023-05-25T02:12:57.652Z,9
2023-05-25T02:14:04.418Z,9
2023-05-25T02:15:11.279Z,10
2023-05-25T02:16:18.174Z,9
2023-05-25T02:17:24.938Z,10
2023-05-25T02:18:31.832Z,9
2023-05-25T02:19:38.645Z,10
2023-05-25T02:20:45.542Z,11
2023-05-25T02:21:52.349Z,9
2023-05-25T02:22:59.142Z,13
2023-05-25T02:24:05.915Z,11
2023-05-25T02:25:12.830Z,12
2023-05-25T02:26:19.563Z,14
2023-05-25T02:27:26.379Z,13
2023-05-25T02:28:33.300Z,12
2023-05-25T02:29:40.063Z,13
2023-05-25T02:30:47.060Z,15
2023-05-25T02:31:53.955Z,15
2023-05-25T02:33:00.832Z,13
2023-05-25T02:34:07.676Z,13
2023-05-25T02:35:14.420Z,13
2023-05-25T02:36:21.190Z,12
2023-05-25T02:37:27.994Z,12
2023-05-25T02:38:34.884Z,11
2023-05-25T02:39:41.793Z,13
2023-05-25T02:40:48.614Z,17
2023-05-25T02:41:55.402Z,16
2023-05-25T02:43:02.234Z,15
2023-05-25T02:44:09.055Z,13
2023-05-25T02:45:15.914Z,13
2023-05-25T02:46:22.757Z,13
2023-05-25T02:47:29.531Z,12
2023-05-25T02:48:36.304Z,14
2023-05-25T02:49:43.205Z,13
2023-05-25T02:50:49.990Z,15
2023-05-25T02:51:56.892Z,12
2023-05-25T02:53:03.662Z,15
2023-05-25T02:54:10.408Z,15
2023-05-25T02:55:17.277Z,15
2023-05-25T02:56:24.077Z,13
2023-05-25T02:57:30.849Z,12
2023-05-25T02:58:37.628Z,15
2023-05-25T02:59:44.490Z,14
2023-05-25T03:00:51.351Z,14
2023-05-25T03:01:58.236Z,15
2023-05-25T03:03:05.033Z,13
2023-05-25T03:04:11.723Z,14
2023-05-25T03:05:18.563Z,14
2023-05-25T03:06:25.381Z,15
2023-05-25T03:07:32.195Z,13
2023-05-25T03:08:39.026Z,15
2023-05-25T03:09:45.817Z,16
2023-05-25T03:10:52.814Z,14
2023-05-25T03:11:59.712Z,14
2023-05-25T03:13:06.482Z,18
2023-05-25T03:14:13.379Z,16
2023-05-25T03:15:20.114Z,15
2023-05-25T03:16:26.939Z,16
2023-05-25T03:17:33.812Z,13
2023-05-25T03:18:40.557Z,15
2023-05-25T03:19:47.449Z,14
2023-05-25T03:20:54.405Z,15
2023-05-25T03:22:01.343Z,16
2023-05-25T03:23:08.150Z,15
2023-05-25T03:24:14.972Z,15
2023-05-25T03:25:21.786Z,15
2023-05-25T03:26:28.632Z,15
2023-05-25T03:27:35.435Z,18
2023-05-25T03:28:42.226Z,16
2023-05-25T03:29:48.971Z,15
2023-05-25T03:30:55.752Z,15
2023-05-25T03:32:02.482Z,14
2023-05-25T03:33:09.599Z,14
2023-05-25T03:34:16.279Z,15
2023-05-25T03:35:23.013Z,15
2023-05-25T03:36:29.774Z,14
2023-05-25T03:37:36.480Z,15
2023-05-25T03:38:43.346Z,14
2023-05-25T03:39:50.063Z,17
2023-05-25T03:40:56.839Z,14
2023-05-25T03:42:03.680Z,14
2023-05-25T03:43:10.556Z,14
2023-05-25T03:44:17.291Z,18
2023-05-25T03:45:24.050Z,14
2023-05-25T03:46:30.915Z,16
2023-05-25T03:47:37.680Z,15
2023-05-25T03:48:44.534Z,14
2023-05-25T03:49:51.284Z,16
2023-05-25T03:50:58.005Z,14
2023-05-25T03:52:04.899Z,15
2023-05-25T03:53:11.618Z,13
2023-05-25T03:54:18.395Z,16
2023-05-25T03:55:25.184Z,14
2023-05-25T03:56:31.915Z,13
2023-05-25T03:57:38.726Z,13
2023-05-25T03:58:45.551Z,15
2023-05-25T03:59:52.259Z,14
2023-05-25T04:00:59.034Z,15
2023-05-25T04:02:05.962Z,13
2023-05-25T04:03:12.878Z,13
2023-05-25T04:04:19.605Z,15
2023-05-25T04:05:26.374Z,14
2023-05-25T04:06:33.154Z,13
2023-05-25T04:07:40.066Z,15
2023-05-25T04:08:46.782Z,15
2023-05-25T04:09:53.555Z,17
2023-05-25T04:11:00.311Z,13
2023-05-25T04:12:07.215Z,13
2023-05-25T04:13:14.005Z,16
2023-05-25T04:14:20.823Z,15
2023-05-25T04:15:27.521Z,13
2023-05-25T04:16:34.292Z,12
2023-05-25T04:17:41.109Z,14
2023-05-25T04:18:47.912Z,14
2023-05-25T04:19:54.735Z,14
2023-05-25T04:21:01.488Z,13
2023-05-25T04:22:08.259Z,12
2023-05-25T04:23:15.102Z,15
2023-05-25T04:24:21.825Z,14
2023-05-25T04:25:29.622Z,12
2023-05-25T04:26:35.326Z,15
2023-05-25T04:27:42.047Z,13
2023-05-25T04:28:48.848Z,14
2023-05-25T04:29:55.644Z,15
2023-05-25T04:31:02.446Z,13
2023-05-25T04:32:09.277Z,16
2023-05-25T04:33:16.082Z,12
2023-05-25T04:34:22.878Z,14
2023-05-25T04:35:29.653Z,13
2023-05-25T04:36:36.469Z,13
2023-05-25T04:37:43.227Z,16
2023-05-25T04:38:50.084Z,15
2023-05-25T04:39:56.856Z,16
2023-05-25T04:41:03.773Z,16
2023-05-25T04:42:10.656Z,16
2023-05-25T04:43:17.411Z,13
2023-05-25T04:44:24.255Z,17
2023-05-25T04:45:31.064Z,16
2023-05-25T04:46:37.906Z,17
2023-05-25T04:47:44.641Z,13
2023-05-25T04:48:51.525Z,12
2023-05-25T04:49:58.471Z,14
2023-05-25T04:51:05.252Z,13
2023-05-25T04:52:12.050Z,14
2023-05-25T04:53:18.800Z,16
2023-05-25T04:54:25.691Z,14
2023-05-25T04:55:32.500Z,15
2023-05-25T04:56:39.353Z,16
2023-05-25T04:57:46.145Z,15
2023-05-25T04:58:52.940Z,15
2023-05-25T04:59:59.739Z,14
2023-05-25T05:01:06.696Z,14
2023-05-25T05:02:13.560Z,13
2023-05-25T05:03:20.427Z,14
2023-05-25T05:04:27.220Z,14
2023-05-25T05:05:35.248Z,13
2023-05-25T05:06:42.029Z,14
2023-05-25T05:07:48.753Z,16
2023-05-25T05:08:55.546Z,14
2023-05-25T05:10:02.425Z,13
2023-05-25T05:11:09.432Z,15
2023-05-25T05:12:16.296Z,14
2023-05-25T05:13:23.096Z,15
2023-05-25T05:14:30.028Z,17
2023-05-25T05:15:36.938Z,16
2023-05-25T05:16:43.752Z,16
2023-05-25T05:17:50.534Z,15
2023-05-25T05:18:57.285Z,15
2023-05-25T05:20:04.108Z,16
2023-05-25T05:21:11.348Z,19
2023-05-25T05:22:18.075Z,15
2023-05-25T05:23:24.913Z,17
2023-05-25T05:24:31.687Z,17
2023-05-25T05:25:38.630Z,17
2023-05-25T05:26:57.034Z,15
2023-05-25T05:27:52.364Z,18
2023-05-25T05:28:59.203Z,16
2023-05-25T05:30:06.052Z,16
2023-05-25T05:31:13.019Z,17
2023-05-25T05:32:20.029Z,19
2023-05-25T05:33:26.821Z,18
2023-05-25T05:34:33.603Z,18
2023-05-25T05:35:40.401Z,19
2023-05-25T05:36:57.100Z,18
2023-05-25T05:37:54.002Z,17
2023-05-25T05:39:00.751Z,16
2023-05-25T05:40:07.524Z,19
2023-05-25T05:41:14.505Z,15
2023-05-25T05:42:21.482Z,17
2023-05-25T05:43:28.280Z,17
2023-05-25T05:44:35.221Z,17
2023-05-25T05:45:42.097Z,16
2023-05-25T05:46:48.927Z,15
2023-05-25T05:47:55.754Z,19
2023-05-25T05:49:02.523Z,17
2023-05-25T05:50:09.313Z,16
2023-05-25T05:51:16.119Z,17
2023-05-25T05:52:23.001Z,15
2023-05-25T05:53:29.785Z,15
2023-05-25T05:54:36.580Z,15
2023-05-25T05:55:43.479Z,17
2023-05-25T05:56:50.218Z,14
2023-05-25T05:57:57.084Z,16
2023-05-25T05:59:03.876Z,16
2023-05-25T06:00:10.667Z,14
2023-05-25T06:01:17.732Z,16
2023-05-25T06:02:24.733Z,13
2023-05-25T06:03:31.481Z,15
2023-05-25T06:04:38.300Z,17
2023-05-25T06:05:45.449Z,15
2023-05-25T06:06:51.889Z,17
2023-05-25T06:07:58.718Z,14
2023-05-25T06:09:05.443Z,14
2023-05-25T06:10:12.260Z,15
2023-05-25T06:11:19.026Z,17
2023-05-25T06:12:25.881Z,17
2023-05-25T06:13:32.691Z,16
2023-05-25T06:14:39.431Z,15
2023-05-25T06:15:46.597Z,19
2023-05-25T06:16:53.235Z,14
2023-05-25T06:18:00.154Z,17
2023-05-25T06:19:06.885Z,14
2023-05-25T06:20:13.823Z,15
2023-05-25T06:21:20.744Z,16
2023-05-25T06:22:27.524Z,16
2023-05-25T06:23:34.470Z,15
2023-05-25T06:24:41.223Z,15
2023-05-25T06:25:47.987Z,16
2023-05-25T06:26:54.738Z,16
2023-05-25T06:28:01.628Z,14
2023-05-25T06:29:08.371Z,16
2023-05-25T06:30:15.256Z,14
2023-05-25T06:31:22.124Z,16
2023-05-25T06:32:28.927Z,14
2023-05-25T06:33:35.746Z,13
2023-05-25T06:34:42.536Z,14
2023-05-25T06:35:51.006Z,13
2023-05-25T06:36:56.103Z,12
2023-05-25T06:38:03.156Z,13
2023-05-25T06:39:09.943Z,12
2023-05-25T06:40:16.750Z,12
2023-05-25T06:41:23.524Z,11
2023-05-25T06:42:30.334Z,13
2023-05-25T06:43:37.262Z,11
2023-05-25T06:44:44.071Z,12
2023-05-25T06:45:50.921Z,12
2023-05-25T06:46:57.746Z,14
2023-05-25T06:48:04.539Z,18
2023-05-25T06:49:11.330Z,14
2023-05-25T06:50:18.349Z,14
2023-05-25T06:51:25.268Z,10
2023-05-25T06:52:32.050Z,10
2023-05-25T06:53:38.814Z,10
2023-05-25T06:54:45.706Z,11
2023-05-25T06:55:52.472Z,10
2023-05-25T06:56:59.291Z,8
2023-05-25T06:58:06.105Z,10
2023-05-25T06:59:13.031Z,8
2023-05-25T07:00:19.837Z,8
2023-05-25T07:01:26.765Z,9
2023-05-25T07:02:33.645Z,8
2023-05-25T07:03:40.381Z,8
2023-05-25T07:04:47.328Z,8
2023-05-25T07:05:54.246Z,9
2023-05-25T07:07:01.012Z,7
2023-05-25T07:08:07.925Z,8
2023-05-25T07:09:14.727Z,7
2023-05-25T07:10:21.557Z,9
2023-05-25T07:11:28.400Z,7
2023-05-25T07:12:35.252Z,8
2023-05-25T07:13:42.166Z,8
2023-05-25T07:14:48.975Z,9
2023-05-25T07:15:55.794Z,8
2023-05-25T07:17:02.651Z,7
2023-05-25T07:18:09.496Z,10
2023-05-25T07:19:16.335Z,11
2023-05-25T07:20:23.081Z,11
2023-05-25T07:21:29.973Z,9
2023-05-25T07:22:36.737Z,8
2023-05-25T07:23:43.483Z,10
2023-05-25T07:24:50.274Z,7
2023-05-25T07:25:57.129Z,7
2023-05-25T07:27:03.911Z,8
2023-05-25T07:28:10.751Z,9
2023-05-25T07:29:17.581Z,9
2023-05-25T07:30:24.458Z,9
2023-05-25T07:31:31.275Z,8
2023-05-25T07:32:38.055Z,8
2023-05-25T07:33:44.792Z,9
2023-05-25T07:34:51.586Z,8
2023-05-25T07:35:58.467Z,8
2023-05-25T07:37:05.389Z,9
2023-05-25T07:38:12.112Z,8
2023-05-25T07:39:18.982Z,9
2023-05-25T07:40:25.785Z,8
2023-05-25T07:41:32.662Z,9
2023-05-25T07:42:39.499Z,8
2023-05-25T07:43:46.353Z,8
2023-05-25T07:44:53.336Z,7
2023-05-25T07:46:00.154Z,9
2023-05-25T07:47:07.218Z,9
2023-05-25T07:48:13.895Z,8
2023-05-25T07:49:20.703Z,8
2023-05-25T07:50:27.680Z,12
2023-05-25T07:51:35.288Z,8
2023-05-25T07:52:42.114Z,9
2023-05-25T07:53:48.864Z,8
2023-05-25T07:54:55.785Z,16
2023-05-25T07:56:02.541Z,14
2023-05-25T07:57:09.560Z,14
2023-05-25T07:58:16.372Z,12
2023-05-25T07:59:23.181Z,19
2023-05-25T08:00:30.009Z,12
2023-05-25T08:01:36.812Z,19
2023-05-25T08:02:43.744Z,14
2023-05-25T08:03:50.659Z,10
2023-05-25T08:04:57.348Z,10
2023-05-25T08:06:04.150Z,9
2023-05-25T08:07:11.409Z,7
2023-05-25T08:08:17.908Z,7
2023-05-25T08:09:24.674Z,7
2023-05-25T08:10:32.561Z,8
2023-05-25T08:11:39.300Z,8
2023-05-25T08:12:48.339Z,7
2023-05-25T08:13:52.933Z,9
2023-05-25T08:14:59.757Z,10
2023-05-25T08:16:06.831Z,8
2023-05-25T08:17:13.686Z,8
2023-05-25T08:18:20.419Z,8
2023-05-25T08:19:27.251Z,8
2023-05-25T08:20:37.161Z,8
2023-05-25T08:21:43.883Z,9
2023-05-25T08:22:50.624Z,8
2023-05-25T08:23:57.371Z,9
2023-05-25T08:25:04.154Z,9
2023-05-25T08:26:28.976Z,9
2023-05-25T08:27:17.875Z,8
2023-05-25T08:28:24.674Z,9
2023-05-25T08:29:31.479Z,12
2023-05-25T08:30:38.287Z,10
2023-05-25T08:31:45.001Z,9
2023-05-25T08:32:51.804Z,8
2023-05-25T08:33:58.650Z,8
2023-05-25T08:35:05.403Z,10
2023-05-25T08:36:12.273Z,10
2023-05-25T08:37:19.049Z,11
2023-05-25T08:38:25.786Z,11
2023-05-25T08:39:34.165Z,11
2023-05-25T08:40:39.419Z,7
2023-05-25T08:41:46.157Z,10
2023-05-25T08:42:52.962Z,8
2023-05-25T08:43:59.789Z,12
2023-05-25T08:45:06.554Z,12
2023-05-25T08:46:13.468Z,11
2023-05-25T08:47:23.102Z,9
2023-05-25T08:48:39.852Z,11
2023-05-25T08:49:36.700Z,10
2023-05-25T08:50:43.450Z,11
2023-05-25T08:51:50.261Z,10
2023-05-25T08:52:57.062Z,10
2023-05-25T08:54:03.833Z,12
2023-05-25T08:55:13.207Z,12
2023-05-25T08:56:19.998Z,10
2023-05-25T08:57:26.991Z,8
2023-05-25T08:58:41.650Z,8
2023-05-25T08:59:48.422Z,12
2023-05-25T09:01:02.940Z,20
2023-05-25T09:02:09.839Z,10
2023-05-25T09:03:26.947Z,8
2023-05-25T09:04:36.546Z,10
2023-05-25T09:05:43.506Z,8
2023-05-25T09:07:02.028Z,9
2023-05-25T09:07:56.849Z,9
2023-05-25T09:09:05.819Z,10
2023-05-25T09:10:14.557Z,11
2023-05-25T09:11:35.137Z,13
2023-05-25T09:12:28.934Z,14
2023-05-25T09:13:35.702Z,10
2023-05-25T09:14:42.462Z,11
2023-05-25T09:15:49.362Z,10
2023-05-25T09:16:56.137Z,12
2023-05-25T09:18:02.984Z,12
2023-05-25T09:19:09.723Z,11
2023-05-25T09:20:16.579Z,10
2023-05-25T09:21:23.342Z,12
2023-05-25T09:22:30.172Z,13
2023-05-25T09:23:37.042Z,13
2023-05-25T09:24:43.825Z,17
2023-05-25T09:25:50.697Z,15
2023-05-25T09:26:57.617Z,15
2023-05-25T09:28:17.515Z,12
2023-05-25T09:29:11.474Z,12
2023-05-25T09:30:18.261Z,11
2023-05-25T09:31:25.133Z,14
2023-05-25T09:32:32.038Z,11
2023-05-25T09:33:38.762Z,11
2023-05-25T09:34:45.490Z,9
2023-05-25T09:35:52.238Z,10
2023-05-25T09:36:59.191Z,9
2023-05-25T09:38:14.518Z,12
2023-05-25T09:39:21.245Z,12
2023-05-25T09:40:27.982Z,13
2023-05-25T09:41:37.607Z,13
2023-05-25T09:42:44.396Z,17
2023-05-25T09:44:01.818Z,16
2023-05-25T09:44:57.917Z,10
2023-05-25T09:46:04.801Z,9
2023-05-25T09:47:11.779Z,9
2023-05-25T09:48:18.512Z,12
2023-05-25T09:49:25.363Z,23
2023-05-25T09:50:32.138Z,23
2023-05-25T09:51:38.960Z,33
2023-05-25T09:52:45.758Z,17
2023-05-25T09:53:52.529Z,12
2023-05-25T09:54:59.334Z,16
2023-05-25T09:56:06.290Z,18
2023-05-25T09:57:13.088Z,13
2023-05-25T09:58:19.899Z,13
2023-05-25T09:59:26.689Z,17
2023-05-25T10:00:33.507Z,17
2023-05-25T10:01:41.894Z,12
2023-05-25T10:02:50.102Z,10
2023-05-25T10:04:03.984Z,14
2023-05-25T10:05:04.833Z,12
2023-05-25T10:06:11.692Z,9
2023-05-25T10:07:18.510Z,9
2023-05-25T10:08:27.971Z,10
2023-05-25T10:09:32.171Z,9
2023-05-25T10:10:39.076Z,8
2023-05-25T10:11:45.875Z,9
2023-05-25T10:12:52.653Z,9
2023-05-25T10:13:59.521Z,9
2023-05-25T10:15:06.324Z,8
2023-05-25T10:16:13.354Z,8
2023-05-25T10:17:23.102Z,8
2023-05-25T10:18:29.829Z,8
2023-05-25T10:19:36.701Z,8
2023-05-25T10:20:43.617Z,10
2023-05-25T10:21:50.342Z,9
2023-05-25T10:22:57.144Z,12
2023-05-25T10:24:03.993Z,10
2023-05-25T10:25:13.775Z,11
2023-05-25T10:26:28.396Z,10
2023-05-25T10:27:35.123Z,11
2023-05-25T10:28:41.936Z,10
2023-05-25T10:29:48.864Z,10
2023-05-25T10:30:55.688Z,9
2023-05-25T10:32:02.744Z,9
2023-05-25T10:33:11.000Z,13
2023-05-25T10:34:20.993Z,9
2023-05-25T10:35:27.887Z,9
2023-05-25T10:36:34.573Z,8
2023-05-25T10:37:41.450Z,8
2023-05-25T10:38:48.247Z,7
2023-05-25T10:39:55.075Z,9
2023-05-25T10:41:01.892Z,8
2023-05-25T10:42:08.784Z,7
2023-05-25T10:43:15.580Z,7
2023-05-25T10:44:22.494Z,7
2023-05-25T10:45:29.243Z,8
2023-05-25T10:46:36.090Z,10
2023-05-25T10:47:43.042Z,8
2023-05-25T10:48:49.795Z,7
2023-05-25T10:49:56.624Z,8
2023-05-25T10:51:03.418Z,10
2023-05-25T10:52:10.207Z,9
2023-05-25T10:53:17.023Z,9
2023-05-25T10:54:23.784Z,10
2023-05-25T10:55:33.217Z,8
2023-05-25T10:56:50.275Z,8
2023-05-25T10:58:08.397Z,9
2023-05-25T10:59:15.114Z,7
2023-05-25T11:00:26.991Z,8
2023-05-25T11:01:33.965Z,10
2023-05-25T11:02:40.626Z,8
2023-05-25T11:03:52.489Z,8
2023-05-25T11:04:59.327Z,7
2023-05-25T11:06:16.243Z,9
2023-05-25T11:07:23.153Z,10
2023-05-25T11:08:29.956Z,9
2023-05-25T11:09:46.890Z,10
2023-05-25T11:11:01.553Z,10
2023-05-25T11:12:08.432Z,12
2023-05-25T11:13:20.273Z,12
2023-05-25T11:14:32.140Z,11
2023-05-25T11:15:41.826Z,12
2023-05-25T11:16:48.707Z,9
2023-05-25T11:18:05.628Z,9
2023-05-25T11:19:12.335Z,9
2023-05-25T11:20:19.123Z,8
2023-05-25T11:21:28.625Z,9
2023-05-25T11:22:38.499Z,10
2023-05-25T11:23:45.361Z,10
2023-05-25T11:24:57.606Z,10
2023-05-25T11:26:04.493Z,10
2023-05-25T11:27:11.320Z,9
2023-05-25T11:28:18.078Z,9
2023-05-25T11:29:24.842Z,12
2023-05-25T11:30:31.677Z,8
2023-05-25T11:31:42.414Z,9
2023-05-25T11:32:45.357Z,8
2023-05-25T11:33:52.143Z,10
2023-05-25T11:34:58.921Z,8
2023-05-25T11:36:05.698Z,11
2023-05-25T11:37:12.534Z,10
2023-05-25T11:38:19.383Z,9
2023-05-25T11:39:26.152Z,9
2023-05-25T11:40:33.305Z,9
2023-05-25T11:41:39.910Z,11
2023-05-25T11:42:46.739Z,9
2023-05-25T11:43:53.515Z,9
2023-05-25T11:45:00.302Z,10
2023-05-25T11:46:07.316Z,8
2023-05-25T11:47:14.145Z,9
2023-05-25T11:48:20.990Z,8
2023-05-25T11:49:27.812Z,9
2023-05-25T11:50:34.653Z,9
2023-05-25T11:51:41.489Z,8
2023-05-25T11:52:48.327Z,8
2023-05-25T11:53:55.092Z,8
2023-05-25T11:55:01.955Z,9
2023-05-25T11:57:20.738Z,12
2023-05-25T11:58:27.632Z,10
2023-05-25T11:59:39.758Z,9
2023-05-25T12:00:54.223Z,10
2023-05-25T12:02:01.151Z,12
2023-05-25T12:03:08.074Z,13
2023-05-25T12:04:14.974Z,9
2023-05-25T12:05:21.745Z,10
2023-05-25T12:06:28.497Z,12
2023-05-25T12:07:35.791Z,12
2023-05-25T12:08:45.207Z,11
2023-05-25T12:09:51.988Z,10
2023-05-25T12:11:06.786Z,9
2023-05-25T12:12:13.708Z,10
2023-05-25T12:13:20.505Z,11
2023-05-25T12:14:27.261Z,10
2023-05-25T12:15:34.022Z,13
2023-05-25T12:16:41.022Z,11
2023-05-25T12:17:47.690Z,11
2023-05-25T12:18:54.470Z,14
2023-05-25T12:20:01.333Z,14
2023-05-25T12:21:08.402Z,13
2023-05-25T12:22:17.975Z,13
2023-05-25T12:23:24.790Z,11
2023-05-25T12:24:31.607Z,12
2023-05-25T12:25:49.500Z,17
2023-05-25T12:26:45.191Z,12
2023-05-25T12:27:54.757Z,12
2023-05-25T12:29:11.604Z,13
2023-05-25T12:30:18.488Z,11
2023-05-25T12:31:25.395Z,12
2023-05-25T12:32:32.253Z,11
2023-05-25T12:33:39.019Z,11
2023-05-25T12:34:45.811Z,14
2023-05-25T12:35:52.689Z,13
2023-05-25T12:36:59.445Z,13
2023-05-25T12:38:06.303Z,11
2023-05-25T12:39:22.536Z,12
2023-05-25T12:40:32.774Z,11
2023-05-25T12:41:39.535Z,12
2023-05-25T12:42:49.138Z,14
2023-05-25T12:43:58.509Z,13
2023-05-25T12:45:05.488Z,12
2023-05-25T12:46:12.523Z,11
2023-05-25T12:47:19.400Z,11
2023-05-25T12:48:26.242Z,11
2023-05-25T12:49:33.073Z,12
2023-05-25T12:50:41.017Z,11
2023-05-25T12:51:51.864Z,12
2023-05-25T12:52:58.635Z,12
2023-05-25T12:54:05.415Z,14
2023-05-25T12:55:12.222Z,11
2023-05-25T12:56:36.824Z,13
2023-05-25T12:58:07.075Z,11
2023-05-25T12:59:13.997Z,10
2023-05-25T13:00:20.787Z,11
2023-05-25T13:01:27.613Z,12
2023-05-25T13:02:34.523Z,13
2023-05-25T13:03:41.500Z,16
2023-05-25T13:04:48.252Z,11
2023-05-25T13:05:55.161Z,12
2023-05-25T13:07:04.476Z,13
2023-05-25T13:08:11.179Z,11
2023-05-25T13:09:18.028Z,9
2023-05-25T13:10:24.998Z,11
2023-05-25T13:11:31.718Z,12
2023-05-25T13:12:38.523Z,12
2023-05-25T13:13:45.340Z,13
2023-05-25T13:14:52.112Z,13
2023-05-25T13:15:58.880Z,11
2023-05-25T13:17:05.667Z,12
2023-05-25T13:18:12.544Z,11
2023-05-25T13:19:19.511Z,14
2023-05-25T13:20:26.327Z,12
2023-05-25T13:21:33.100Z,13
2023-05-25T13:22:39.887Z,13
2023-05-25T13:23:46.644Z,13
2023-05-25T13:24:53.517Z,14
2023-05-25T13:26:00.368Z,12
2023-05-25T13:27:07.266Z,12
2023-05-25T13:28:14.041Z,12
2023-05-25T13:29:20.833Z,13
2023-05-25T13:30:27.650Z,14
2023-05-25T13:31:34.581Z,12
2023-05-25T13:32:41.366Z,14
2023-05-25T13:33:48.075Z,14
2023-05-25T13:34:54.851Z,12
2023-05-25T13:36:01.685Z,13
2023-05-25T13:37:11.491Z,14
2023-05-25T13:38:18.391Z,12
2023-05-25T13:39:25.130Z,13
2023-05-25T13:40:31.926Z,14
2023-05-25T13:41:38.703Z,12
2023-05-25T13:42:45.543Z,11
2023-05-25T13:43:52.356Z,14
2023-05-25T13:44:59.111Z,12
2023-05-25T13:46:05.931Z,12
2023-05-25T13:47:12.871Z,13
2023-05-25T13:48:19.805Z,12
2023-05-25T13:49:26.636Z,12
2023-05-25T13:50:33.425Z,14
2023-05-25T13:51:52.727Z,15
2023-05-25T13:52:59.539Z,14
2023-05-25T13:54:06.540Z,12
2023-05-25T13:55:13.330Z,13
2023-05-25T13:56:20.146Z,14
2023-05-25T13:57:27.199Z,13
2023-05-25T13:58:34.000Z,13
2023-05-25T13:59:40.819Z,12
2023-05-25T14:00:47.618Z,13
2023-05-25T14:01:55.897Z,13
2023-05-25T14:03:01.378Z,11
2023-05-25T14:04:08.195Z,14
2023-05-25T14:05:14.917Z,14
2023-05-25T14:06:21.729Z,13
2023-05-25T14:07:28.652Z,14
2023-05-25T14:08:35.475Z,12
2023-05-25T14:09:42.328Z,13
2023-05-25T14:10:49.101Z,12
2023-05-25T14:11:55.886Z,14
2023-05-25T14:13:02.845Z,15
2023-05-25T14:14:19.706Z,14
2023-05-25T14:15:16.646Z,15
2023-05-25T14:16:23.476Z,15
2023-05-25T14:17:30.277Z,15
2023-05-25T14:18:37.130Z,15
2023-05-25T14:19:43.924Z,15
2023-05-25T14:20:50.715Z,15
2023-05-25T14:22:11.547Z,13
2023-05-25T14:23:04.379Z,14
2023-05-25T14:24:11.226Z,12
2023-05-25T14:25:17.978Z,13
2023-05-25T14:26:24.704Z,15
2023-05-25T14:27:31.549Z,12
2023-05-25T14:28:38.390Z,12
2023-05-25T14:29:45.192Z,14
2023-05-25T14:30:51.956Z,14
2023-05-25T14:31:58.850Z,16
2023-05-25T14:33:05.654Z,15
2023-05-25T14:34:12.465Z,15
2023-05-25T14:35:19.286Z,16
2023-05-25T14:36:26.125Z,15
2023-05-25T14:37:32.942Z,15
2023-05-25T14:38:39.873Z,16
2023-05-25T14:39:46.613Z,18
2023-05-25T14:40:53.516Z,15
2023-05-25T14:42:00.224Z,15
2023-05-25T14:43:07.116Z,15
2023-05-25T14:44:14.016Z,15
2023-05-25T14:45:20.801Z,16
2023-05-25T14:46:27.606Z,15
2023-05-25T14:47:34.382Z,18
2023-05-25T14:48:41.212Z,15
2023-05-25T14:49:47.986Z,17
2023-05-25T14:50:54.755Z,14
2023-05-25T14:52:01.549Z,14
2023-05-25T14:53:08.345Z,13
2023-05-25T14:54:15.207Z,16
2023-05-25T14:55:22.099Z,16
2023-05-25T14:56:28.928Z,14
2023-05-25T14:57:35.674Z,13
2023-05-25T14:58:42.498Z,14
2023-05-25T14:59:49.370Z,16
2023-05-25T15:00:56.132Z,16
2023-05-25T15:02:03.032Z,15
2023-05-25T15:03:09.855Z,14
2023-05-25T15:04:16.616Z,13
2023-05-25T15:05:23.549Z,12
2023-05-25T15:06:30.387Z,14
2023-05-25T15:07:37.221Z,12
2023-05-25T15:08:43.976Z,13
2023-05-25T15:09:50.886Z,14
2023-05-25T15:10:57.733Z,12
2023-05-25T15:12:04.638Z,11
2023-05-25T15:13:13.294Z,12
2023-05-25T15:14:18.274Z,14
2023-05-25T15:15:25.187Z,12
2023-05-25T15:16:31.992Z,13
2023-05-25T15:17:38.862Z,13
2023-05-25T15:18:45.566Z,15
2023-05-25T15:19:52.408Z,14
2023-05-25T15:20:59.223Z,13
2023-05-25T15:22:06.080Z,13
2023-05-25T15:23:13.002Z,12
2023-05-25T15:24:19.755Z,15
2023-05-25T15:25:34.846Z,14
2023-05-25T15:26:33.407Z,16
2023-05-25T15:27:40.222Z,15
2023-05-25T15:28:47.049Z,15
2023-05-25T15:29:53.863Z,14
2023-05-25T15:31:02.702Z,15
2023-05-25T15:32:07.541Z,15
2023-05-25T15:33:14.420Z,14
2023-05-25T15:34:21.094Z,13
2023-05-25T15:35:27.817Z,15
2023-05-25T15:36:34.693Z,15
2023-05-25T15:37:41.630Z,13
2023-05-25T15:38:48.447Z,14
2023-05-25T15:39:55.173Z,15
2023-05-25T15:41:01.965Z,14
2023-05-25T15:42:08.870Z,13
2023-05-25T15:43:15.651Z,13
2023-05-25T15:44:22.541Z,12
2023-05-25T15:45:29.301Z,13
2023-05-25T15:46:36.191Z,13
2023-05-25T15:47:43.041Z,12
2023-05-25T15:48:49.824Z,15
2023-05-25T15:49:56.591Z,12
2023-05-25T15:51:03.380Z,14
2023-05-25T15:52:10.199Z,10
2023-05-25T15:53:16.941Z,11
2023-05-25T15:54:23.679Z,12
2023-05-25T15:55:30.441Z,12
2023-05-25T15:56:37.224Z,12
2023-05-25T15:57:44.078Z,16
2023-05-25T15:58:50.876Z,13
2023-05-25T15:59:57.690Z,12
2023-05-25T16:01:04.702Z,13
2023-05-25T16:02:11.447Z,12
2023-05-25T16:03:18.282Z,12
2023-05-25T16:04:25.117Z,12
2023-05-25T16:05:31.894Z,14
2023-05-25T16:06:38.692Z,13
2023-05-25T16:07:45.554Z,16
2023-05-25T16:08:52.402Z,12
2023-05-25T16:09:59.196Z,12
2023-05-25T16:11:06.026Z,15
2023-05-25T16:12:12.809Z,14
2023-05-25T16:13:19.644Z,15
2023-05-25T16:14:26.467Z,14
2023-05-25T16:15:33.268Z,13
2023-05-25T16:16:40.030Z,14
2023-05-25T16:17:46.789Z,12